Main page
METAR-TAF:

METAR-TAF

Airports :

Zagreb Airport

Zagreb, Croatia

latitude: 45-44N, longitude: 016-04E, elevation: 106 m

Current weather observation

The report was made 29 minutes ago, at 06:30 UTC
Wind 7 kt from the North, varying between North/Northwest and East/Northeast
Temperature 23°C
Humidity 50%
Pressure 1020 hPa
Visibility 10 km or more
no clouds below 1500 m and no cumulonimbus

METAR: LDZA 190630Z 01007KT 330V070 CAVOK 23/12 Q1020 NOSIG

Time: 08:59 (06:59 UTC)

Forecast

The report was made 1 hour and 34 minutes ago, at 05:25 UTC
Forecast valid from 19 at 06 UTC to 20 at 06 UTC
Wind 8 kt from the Northeast
Visibility 10 km or more
no clouds below 1500 m and no cumulonimbus
Probability 30% :
Temporary
from 19 at 06 UTC to 19 at 15 UTC
Wind 12 kt from the Northeast with gusts up to 22 kt

TAF: LDZA 190525Z 1906/2006 04008KT CAVOK TX28/1913Z TN18/2003Z PROB30 TEMPO 1906/1915 04012G22KT

Weather observations and forecasts of more than 4000 airports (METAR and TAF reports).

The available stations are represented by yellow and red dots on the map.

Hover mouse over dot to see the name of the station.

Then click to see weather observations and forecasts.

To change the map : click on the green buttons with a black cross to zoom in, on the green button with a dash to zoom out, or on the green arrows for adjacent maps.


METAR-TAF: